Terminal Aerodrome Forecast
Issued by NWS

Home | Current Version | Previous Version | Text Only | Print | Product List | Glossary On
Versions: 1 2 3 4 5 6 7 8 9 10 11 12 13 14 15 16 17 18
460
FTUS42 KMHX 291722
TAFISO
TAF
KISO 291722Z 2918/3018 10009KT P6SM VCSH SCT007 BKN035
     FM292100 12005KT 6SM SHRA SCT015 OVC035
     FM300600 12005KT 5SM SHRA VCTS SCT015 OVC020CB
     FM301000 VRB04KT 5SM -RA VCTS BKN012 OVC015CB
     FM301500 10005KT 6SM -SHRA OVC035
      AMD LTD TO CLD VIS AND WIND=

USA.gov is the U.S. government's official web portal to all federal, state and local government web resources and services.